createdAt,value
2023-07-04T00:01:26.268Z,19.85
2023-07-04T00:03:57.059Z,17.08
2023-07-04T00:06:29.319Z,20.02
2023-07-04T00:08:57.342Z,17.15
2023-07-04T00:11:25.116Z,19.15
2023-07-04T00:13:52.953Z,17.92
2023-07-04T00:16:21.512Z,19.40
2023-07-04T00:18:50.216Z,21.60
2023-07-04T00:21:18.638Z,19.67
2023-07-04T00:23:53.701Z,12.57
2023-07-04T00:26:24.736Z,24.58
2023-07-04T00:28:52.564Z,18.23
2023-07-04T00:31:24.971Z,22.63
2023-07-04T00:33:54.431Z,23.30
2023-07-04T00:36:22.530Z,20.35
2023-07-04T00:38:57.642Z,18.80
2023-07-04T00:41:30.087Z,17.77
2023-07-04T00:44:15.046Z,15.82
2023-07-04T00:46:54.800Z,18.53
2023-07-04T00:49:39.088Z,19.67
2023-07-04T00:52:24.954Z,17.67
2023-07-04T00:54:58.732Z,27.00
2023-07-04T00:57:32.793Z,18.95
2023-07-04T01:00:13.978Z,19.45
2023-07-04T01:02:42.014Z,16.83
2023-07-04T01:05:11.643Z,18.83
2023-07-04T01:08:02.959Z,22.33
2023-07-04T01:10:38.280Z,22.80
2023-07-04T01:13:07.599Z,18.02
2023-07-04T01:15:35.219Z,18.60
2023-07-04T01:18:04.120Z,22.45
2023-07-04T01:20:33.629Z,16.05
2023-07-04T01:23:24.439Z,19.85
2023-07-04T01:26:34.512Z,20.90
2023-07-04T01:29:04.969Z,16.13
2023-07-04T01:31:36.335Z,17.85
2023-07-04T01:34:05.964Z,19.75
2023-07-04T01:36:40.093Z,18.20
2023-07-04T01:39:16.298Z,20.33
2023-07-04T01:41:48.886Z,23.15
2023-07-04T01:44:17.789Z,23.67
2023-07-04T01:46:45.955Z,21.58
2023-07-04T01:49:13.993Z,20.25
2023-07-04T01:51:43.268Z,14.88
2023-07-04T01:54:19.715Z,17.45
2023-07-04T01:56:53.984Z,20.48
2023-07-04T01:59:23.029Z,13.57
2023-07-04T02:01:50.994Z,23.02
2023-07-04T02:04:18.884Z,19.10
2023-07-04T02:06:46.542Z,20.33
2023-07-04T02:09:14.543Z,17.20
2023-07-04T02:11:42.325Z,22.85
2023-07-04T02:14:10.788Z,18.30
2023-07-04T02:16:38.623Z,23.85
2023-07-04T02:19:06.501Z,16.98
2023-07-04T02:21:36.095Z,19.75
2023-07-04T02:24:04.548Z,27.60
2023-07-04T02:26:33.712Z,20.92
2023-07-04T02:29:01.470Z,26.23
2023-07-04T02:31:30.223Z,23.02
2023-07-04T02:33:57.969Z,22.15
2023-07-04T02:36:25.823Z,17.10
2023-07-04T02:38:53.671Z,26.02
2023-07-04T02:41:21.837Z,15.50
2023-07-04T02:43:53.178Z,24.38
2023-07-04T02:46:21.567Z,15.77
2023-07-04T02:48:53.583Z,26.45
2023-07-04T02:51:21.316Z,16.25
2023-07-04T02:53:49.295Z,21.52
2023-07-04T02:56:17.175Z,20.35
2023-07-04T02:58:44.895Z,23.27
2023-07-04T03:01:12.700Z,15.80
2023-07-04T03:03:41.861Z,17.63
2023-07-04T03:06:10.674Z,14.80
2023-07-04T03:08:38.555Z,16.58
2023-07-04T03:11:06.553Z,27.23
2023-07-04T03:13:35.933Z,18.77
2023-07-04T03:16:05.348Z,17.65
2023-07-04T03:18:35.192Z,25.70
2023-07-04T03:21:03.557Z,20.80
2023-07-04T03:23:31.415Z,17.42
2023-07-04T03:25:59.594Z,21.30
2023-07-04T03:28:27.398Z,20.52
2023-07-04T03:30:56.837Z,23.40
2023-07-04T03:33:26.545Z,14.93
2023-07-04T03:35:59.678Z,15.02
2023-07-04T03:38:30.527Z,18.95
2023-07-04T03:41:00.144Z,16.58
2023-07-04T03:43:28.230Z,21.40
2023-07-04T03:45:57.472Z,20.80
2023-07-04T03:48:25.390Z,19.17
2023-07-04T03:50:53.399Z,18.08
2023-07-04T03:53:21.631Z,22.58
2023-07-04T03:55:51.119Z,15.57
2023-07-04T03:58:19.397Z,16.80
2023-07-04T04:00:52.488Z,19.85
2023-07-04T04:03:20.579Z,17.02
2023-07-04T04:05:48.493Z,19.30
2023-07-04T04:08:16.114Z,18.80
2023-07-04T04:10:44.217Z,15.32
2023-07-04T04:13:12.192Z,18.25
2023-07-04T04:15:39.867Z,16.27
2023-07-04T04:18:07.756Z,11.88
2023-07-04T04:20:35.810Z,21.08
2023-07-04T04:23:03.489Z,17.77
2023-07-04T04:25:38.981Z,18.17
2023-07-04T04:30:36.429Z,17.13
2023-07-04T04:33:04.929Z,15.30
2023-07-04T04:35:32.858Z,17.02
2023-07-04T04:38:01.073Z,18.92
2023-07-04T04:40:30.355Z,15.45
2023-07-04T04:42:58.373Z,15.82
2023-07-04T04:45:26.345Z,17.80
2023-07-04T04:47:54.471Z,15.20
2023-07-04T04:50:24.868Z,16.98
2023-07-04T04:52:53.346Z,10.68
2023-07-04T04:55:21.218Z,17.38
2023-07-04T04:57:49.153Z,17.42
2023-07-04T05:00:18.113Z,10.25
2023-07-04T05:02:48.792Z,15.25
2023-07-04T05:05:17.439Z,13.93
2023-07-04T05:07:45.230Z,14.02
2023-07-04T05:10:13.105Z,12.93
2023-07-04T05:12:40.906Z,17.25
2023-07-04T05:15:09.452Z,16.35
2023-07-04T05:17:37.178Z,13.50
2023-07-04T05:20:06.600Z,17.90
2023-07-04T05:22:34.882Z,10.02
2023-07-04T05:25:02.511Z,11.98
2023-07-04T05:27:30.263Z,11.55
2023-07-04T05:29:58.034Z,15.40
2023-07-04T05:32:25.790Z,16.88
2023-07-04T05:34:53.671Z,15.88
2023-07-04T05:37:21.663Z,16.88
2023-07-04T05:39:51.131Z,12.65
2023-07-04T05:42:18.811Z,7.82
2023-07-04T05:44:46.498Z,10.45
2023-07-04T05:47:14.217Z,11.05
2023-07-04T05:49:42.006Z,18.65
2023-07-04T05:52:09.698Z,12.90
2023-07-04T05:54:37.336Z,9.82
2023-07-04T05:57:05.593Z,9.63
2023-07-04T05:59:33.327Z,6.47
2023-07-04T06:02:01.059Z,11.70
2023-07-04T06:04:29.023Z,11.60
2023-07-04T06:06:56.891Z,13.73
2023-07-04T06:09:24.592Z,10.63
2023-07-04T06:11:52.313Z,12.57
2023-07-04T06:14:28.012Z,10.27
2023-07-04T06:17:00.420Z,7.85
2023-07-04T06:19:28.107Z,9.77
2023-07-04T06:21:56.924Z,10.68
2023-07-04T06:24:26.744Z,8.43
2023-07-04T06:26:54.453Z,11.88
2023-07-04T06:29:22.093Z,6.65
2023-07-04T06:31:50.457Z,17.55
2023-07-04T06:34:18.202Z,12.48
2023-07-04T06:36:52.054Z,13.70
2023-07-04T06:39:19.899Z,10.23
2023-07-04T06:41:47.715Z,13.55
2023-07-04T06:44:15.385Z,7.30
2023-07-04T06:46:45.475Z,8.02
2023-07-04T06:49:13.513Z,9.63
2023-07-04T06:51:41.172Z,13.57
2023-07-04T06:54:08.926Z,13.27
2023-07-04T06:56:39.143Z,8.93
2023-07-04T06:59:07.840Z,8.60
2023-07-04T07:01:35.962Z,5.68
2023-07-04T07:04:05.133Z,9.55
2023-07-04T07:06:33.226Z,8.35
2023-07-04T07:09:02.162Z,7.15
2023-07-04T07:11:29.939Z,3.97
2023-07-04T07:13:57.781Z,9.93
2023-07-04T07:16:27.181Z,9.05
2023-07-04T07:18:56.597Z,8.75
2023-07-04T07:21:27.183Z,6.47
2023-07-04T07:23:57.189Z,7.88
2023-07-04T07:26:28.908Z,8.45
2023-07-04T07:28:57.480Z,6.10
2023-07-04T07:31:33.526Z,11.07
2023-07-04T07:34:06.369Z,9.50
2023-07-04T07:36:40.750Z,7.22
2023-07-04T07:39:12.505Z,7.07
2023-07-04T07:41:47.842Z,7.10
2023-07-04T07:44:18.095Z,5.03
2023-07-04T07:46:46.384Z,6.88
2023-07-04T07:49:14.145Z,5.53
2023-07-04T07:51:42.887Z,9.20
2023-07-04T07:54:11.781Z,5.63
2023-07-04T07:56:45.514Z,3.53
2023-07-04T07:59:14.547Z,3.85
2023-07-04T08:01:42.319Z,6.60
2023-07-04T08:04:11.629Z,6.72
2023-07-04T08:06:45.179Z,6.07
2023-07-04T08:09:16.954Z,5.05
2023-07-04T08:11:52.553Z,5.65
2023-07-04T08:14:20.844Z,7.80
2023-07-04T08:16:52.348Z,9.13
2023-07-04T08:19:26.776Z,8.07
2023-07-04T08:21:56.040Z,9.07
2023-07-04T08:24:24.116Z,4.95
2023-07-04T08:26:56.065Z,5.85
2023-07-04T08:29:24.174Z,9.70
2023-07-04T08:31:52.063Z,10.70
2023-07-04T08:34:20.055Z,9.25
2023-07-04T08:36:48.554Z,9.00
2023-07-04T08:39:16.328Z,4.78
2023-07-04T08:42:00.304Z,7.53
2023-07-04T08:44:57.850Z,8.40
2023-07-04T08:47:30.370Z,9.63
2023-07-04T08:50:24.510Z,7.03
2023-07-04T08:53:11.863Z,9.90
2023-07-04T08:55:56.947Z,9.05
2023-07-04T08:58:30.753Z,10.20
2023-07-04T09:01:01.797Z,6.80
2023-07-04T09:03:51.080Z,12.05
2023-07-04T09:06:41.568Z,8.00
2023-07-04T09:09:45.567Z,4.07
2023-07-04T09:12:13.570Z,6.68
2023-07-04T09:14:54.128Z,3.50
2023-07-04T09:17:34.933Z,8.15
2023-07-04T09:20:06.212Z,5.72
2023-07-04T09:22:35.878Z,9.13
2023-07-04T09:25:05.975Z,5.05
2023-07-04T09:27:34.942Z,11.48
2023-07-04T09:30:05.030Z,7.53
2023-07-04T09:32:32.769Z,8.63
2023-07-04T09:35:05.671Z,6.78
2023-07-04T09:37:57.813Z,8.32
2023-07-04T09:40:50.549Z,11.10
2023-07-04T09:43:33.534Z,7.55
2023-07-04T09:46:22.535Z,7.20
2023-07-04T09:48:51.526Z,7.28
2023-07-04T09:51:26.007Z,8.23
2023-07-04T09:54:17.901Z,6.38
2023-07-04T09:56:46.377Z,12.63
2023-07-04T09:59:20.665Z,10.32
2023-07-04T10:01:54.758Z,14.27
2023-07-04T10:04:37.449Z,12.60
2023-07-04T10:07:18.170Z,11.48
2023-07-04T10:10:02.591Z,9.65
2023-07-04T10:12:34.410Z,10.43
2023-07-04T10:15:02.343Z,9.70
2023-07-04T10:17:30.019Z,8.57
2023-07-04T10:20:05.578Z,11.45
2023-07-04T10:25:11.031Z,15.00
2023-07-04T10:27:42.263Z,8.48
2023-07-04T10:30:33.678Z,8.38
2023-07-04T10:33:15.086Z,11.20
2023-07-04T10:35:47.056Z,9.43
2023-07-04T10:38:44.453Z,12.40
2023-07-04T10:41:44.495Z,13.32
2023-07-04T10:44:21.108Z,9.77
2023-07-04T10:46:56.928Z,13.05
2023-07-04T10:49:29.127Z,7.97
2023-07-04T10:52:08.225Z,11.05
2023-07-04T10:54:36.345Z,13.10
2023-07-04T10:57:23.456Z,8.63
2023-07-04T10:59:57.038Z,9.75
2023-07-04T11:03:07.487Z,9.68
2023-07-04T11:05:43.139Z,7.65
2023-07-04T11:08:18.491Z,9.55
2023-07-04T11:10:51.744Z,7.75
2023-07-04T11:13:22.333Z,12.48
2023-07-04T11:15:57.562Z,8.02
2023-07-04T11:18:31.695Z,16.83
2023-07-04T11:21:17.919Z,14.57
2023-07-04T11:23:53.273Z,9.98
2023-07-04T11:26:47.461Z,9.85
2023-07-04T11:29:23.098Z,11.23
2023-07-04T11:32:06.199Z,6.55
2023-07-04T11:34:51.855Z,10.25
2023-07-04T11:37:33.111Z,10.48
2023-07-04T11:40:19.134Z,9.60
2023-07-04T11:45:27.034Z,9.75
2023-07-04T11:48:02.115Z,7.97
2023-07-04T11:50:41.239Z,9.48
2023-07-04T11:53:30.457Z,6.45
2023-07-04T11:56:39.127Z,9.43
2023-07-04T11:59:15.597Z,4.95
2023-07-04T12:02:09.109Z,7.93
2023-07-04T12:04:39.881Z,5.40
2023-07-04T12:07:22.974Z,7.55
2023-07-04T12:10:29.072Z,8.15
2023-07-04T12:13:08.337Z,6.47
2023-07-04T12:15:38.700Z,7.30
2023-07-04T12:18:25.129Z,7.53
2023-07-04T12:20:53.562Z,9.88
2023-07-04T12:23:22.858Z,8.70
2023-07-04T12:25:59.166Z,5.15
2023-07-04T12:28:30.272Z,7.28
2023-07-04T12:31:41.236Z,7.65
2023-07-04T12:33:49.349Z,7.75
2023-07-04T12:36:20.618Z,9.77
2023-07-04T12:38:55.397Z,8.93
2023-07-04T12:41:31.296Z,6.75
2023-07-04T12:51:46.558Z,6.68
2023-07-04T12:54:16.478Z,8.55
2023-07-04T12:56:47.931Z,5.22
2023-07-04T12:59:37.593Z,5.65
2023-07-04T13:02:24.076Z,9.10
2023-07-04T13:04:57.913Z,8.15
2023-07-04T13:07:26.440Z,6.47
2023-07-04T13:09:59.331Z,5.68
2023-07-04T13:12:34.912Z,7.30
2023-07-04T13:15:19.683Z,8.73
2023-07-04T13:18:02.023Z,11.10
2023-07-04T13:20:33.679Z,8.65
2023-07-04T13:25:55.407Z,9.20
2023-07-04T13:34:23.031Z,9.88
2023-07-04T13:36:54.561Z,9.73
2023-07-04T13:39:50.954Z,8.02
2023-07-04T13:42:17.672Z,7.05
2023-07-04T13:47:17.400Z,9.38
2023-07-04T13:49:45.104Z,7.07
2023-07-04T13:52:12.905Z,6.80
2023-07-04T13:54:40.566Z,8.38
2023-07-04T13:57:08.441Z,6.47
2023-07-04T13:59:36.088Z,8.25
2023-07-04T14:07:05.750Z,8.95
2023-07-04T14:09:33.546Z,6.40
2023-07-04T14:12:02.001Z,10.07
2023-07-04T14:22:02.343Z,7.63
2023-07-04T14:24:30.114Z,9.23
2023-07-04T14:26:57.900Z,7.00
2023-07-04T14:29:25.584Z,5.88
2023-07-04T14:31:53.397Z,9.10
2023-07-04T14:34:22.430Z,12.48
2023-07-04T14:36:50.085Z,14.35
2023-07-04T14:39:17.708Z,9.02
2023-07-04T14:42:29.877Z,6.95
2023-07-04T14:44:34.775Z,11.45
2023-07-04T14:47:03.538Z,10.27
2023-07-04T14:49:31.264Z,8.68
2023-07-04T14:51:58.996Z,8.07
2023-07-04T14:54:26.622Z,10.48
2023-07-04T14:56:54.367Z,7.18
2023-07-04T14:59:22.016Z,8.82
2023-07-04T15:01:49.723Z,9.15
2023-07-04T15:04:17.481Z,6.35
2023-07-04T15:06:45.147Z,7.38
2023-07-04T15:09:12.769Z,9.10
2023-07-04T15:11:40.531Z,8.70
2023-07-04T15:14:08.410Z,11.27
2023-07-04T15:16:36.323Z,9.18
2023-07-04T15:19:04.523Z,7.80
2023-07-04T15:21:32.151Z,11.57
2023-07-04T15:23:59.888Z,9.02
2023-07-04T15:26:28.667Z,13.60
2023-07-04T15:28:57.877Z,8.82
2023-07-04T15:31:26.917Z,5.35
2023-07-04T15:33:58.636Z,7.72
2023-07-04T15:36:27.537Z,7.97
2023-07-04T15:38:55.671Z,6.53
2023-07-04T15:41:23.673Z,7.70
2023-07-04T15:43:51.347Z,8.13
2023-07-04T15:46:20.411Z,7.40
2023-07-04T15:48:48.197Z,11.35
2023-07-04T15:51:19.963Z,12.40
2023-07-04T15:53:49.386Z,13.80
2023-07-04T15:56:20.793Z,7.30
2023-07-04T15:58:48.532Z,10.48
2023-07-04T16:01:16.403Z,8.80
2023-07-04T16:03:44.245Z,8.20
2023-07-04T16:06:12.636Z,8.52
2023-07-04T16:08:42.376Z,12.48
2023-07-04T16:11:14.298Z,10.32
2023-07-04T16:13:43.308Z,8.60
2023-07-04T16:16:11.657Z,9.38
2023-07-04T16:18:39.963Z,6.45
2023-07-04T16:21:07.825Z,9.82
2023-07-04T16:23:35.937Z,8.02
2023-07-04T16:26:05.030Z,9.15
2023-07-04T16:28:32.729Z,8.20
2023-07-04T16:31:06.303Z,12.77
2023-07-04T16:33:35.363Z,8.75
2023-07-04T16:36:07.232Z,10.05
2023-07-04T16:38:35.587Z,7.50
2023-07-04T17:22:14.194Z,9.48
2023-07-04T17:24:42.088Z,11.55
2023-07-04T17:27:09.716Z,7.90
2023-07-04T17:29:37.493Z,11.75
2023-07-04T17:32:07.357Z,9.52
2023-07-04T17:34:35.301Z,11.40
2023-07-04T17:37:03.905Z,11.55
2023-07-04T17:39:32.410Z,11.93
2023-07-04T17:42:00.024Z,8.30
2023-07-04T17:44:31.683Z,8.52
2023-07-04T17:47:00.251Z,10.18
2023-07-04T17:49:28.690Z,9.63
2023-07-04T17:51:58.112Z,8.23
2023-07-04T17:54:25.882Z,10.40
2023-07-04T17:56:54.526Z,12.43
2023-07-04T17:59:22.250Z,12.45
2023-07-04T18:01:49.925Z,8.05
2023-07-04T18:04:20.134Z,11.63
2023-07-04T18:06:47.904Z,8.00
2023-07-04T18:09:15.605Z,9.60
2023-07-04T18:11:43.566Z,9.43
2023-07-04T18:14:11.412Z,8.27
2023-07-04T18:16:40.492Z,15.82
2023-07-04T18:19:08.658Z,13.40
2023-07-04T18:21:36.392Z,8.52
2023-07-04T18:24:04.584Z,10.57
2023-07-04T18:26:33.657Z,12.25
2023-07-04T18:29:06.540Z,8.68
2023-07-04T18:31:34.532Z,7.68
2023-07-04T18:34:03.509Z,7.95
2023-07-04T18:36:35.242Z,12.45
2023-07-04T18:39:04.108Z,11.93
2023-07-04T18:41:36.548Z,13.98
2023-07-04T18:44:06.608Z,8.75
2023-07-04T18:46:36.558Z,12.43
2023-07-04T18:49:05.428Z,10.82
2023-07-04T18:51:36.797Z,14.07
2023-07-04T18:54:06.668Z,11.57
2023-07-04T18:56:41.504Z,11.00
2023-07-04T18:59:10.783Z,10.85
2023-07-04T19:01:38.888Z,7.93
2023-07-04T19:04:06.714Z,7.00
2023-07-04T19:06:36.587Z,14.40
2023-07-04T19:09:05.617Z,9.82
2023-07-04T19:11:40.578Z,11.90
2023-07-04T19:14:18.170Z,10.63
2023-07-04T19:16:52.905Z,7.28
2023-07-04T19:19:34.068Z,13.13
2023-07-04T19:22:08.395Z,8.90
2023-07-04T19:24:38.921Z,12.70
2023-07-04T19:27:11.061Z,10.43
2023-07-04T19:29:38.934Z,7.93
2023-07-04T19:32:07.634Z,10.05
2023-07-04T19:34:36.130Z,12.90
2023-07-04T19:37:04.589Z,10.07
2023-07-04T19:39:34.185Z,9.18
2023-07-04T19:42:03.248Z,9.98
2023-07-04T19:44:30.992Z,12.25
2023-07-04T19:46:58.707Z,10.50
2023-07-04T19:49:26.327Z,11.10
2023-07-04T19:51:54.029Z,8.98
2023-07-04T19:54:21.739Z,9.82
2023-07-04T19:56:56.807Z,17.33
2023-07-04T19:59:26.085Z,12.30
2023-07-04T20:01:53.916Z,13.57
2023-07-04T20:04:22.012Z,14.55
2023-07-04T20:06:49.699Z,9.68
2023-07-04T20:09:17.792Z,11.30
2023-07-04T20:11:45.503Z,9.73
2023-07-04T20:14:13.164Z,11.00
2023-07-04T20:16:40.949Z,8.73
2023-07-04T20:19:09.373Z,16.30
2023-07-04T20:21:37.738Z,9.98
2023-07-04T20:24:06.502Z,12.02
2023-07-04T20:26:34.556Z,10.95
2023-07-04T20:29:02.296Z,10.60
2023-07-04T20:31:30.240Z,10.57
2023-07-04T20:33:59.098Z,12.73
2023-07-04T20:36:26.940Z,14.25
2023-07-04T20:38:54.881Z,12.13
2023-07-04T20:41:23.148Z,13.75
2023-07-04T20:43:50.855Z,13.65
2023-07-04T20:46:18.566Z,13.38
2023-07-04T20:48:46.788Z,6.53
2023-07-04T20:51:14.496Z,8.60
2023-07-04T20:53:42.442Z,9.13
2023-07-04T20:56:11.262Z,8.25
2023-07-04T20:58:39.262Z,10.40
2023-07-04T21:01:07.891Z,9.57
2023-07-04T21:03:38.163Z,9.05
2023-07-04T21:06:07.088Z,11.63
2023-07-04T21:08:35.502Z,10.65
2023-07-04T21:11:04.022Z,12.02
2023-07-04T21:13:34.508Z,12.90
2023-07-04T21:16:14.709Z,9.93
2023-07-04T21:18:43.369Z,9.90
2023-07-04T21:21:12.692Z,11.57
2023-07-04T21:23:41.070Z,9.13
2023-07-04T21:26:10.276Z,15.00
2023-07-04T21:28:38.433Z,15.10
2023-07-04T21:31:09.504Z,10.00
2023-07-04T21:33:39.913Z,12.23
2023-07-04T21:36:08.523Z,11.00
2023-07-04T21:38:38.694Z,12.55
2023-07-04T21:41:09.623Z,9.82
2023-07-04T21:43:37.547Z,10.07
2023-07-04T21:46:10.641Z,11.02
2023-07-04T21:48:39.715Z,14.32
2023-07-04T21:51:09.186Z,10.07
2023-07-04T21:53:36.993Z,8.48
2023-07-04T21:56:05.096Z,12.35
2023-07-04T21:58:33.840Z,11.32
2023-07-04T22:01:06.400Z,13.50
2023-07-04T22:03:38.768Z,13.52
2023-07-04T22:06:09.295Z,9.57
2023-07-04T22:08:41.601Z,9.68
2023-07-04T22:11:12.865Z,11.73
2023-07-04T22:13:44.906Z,5.95
2023-07-04T22:16:16.619Z,6.05
2023-07-04T22:18:46.369Z,9.68
2023-07-04T22:21:14.558Z,8.23
2023-07-04T22:23:42.567Z,4.47
2023-07-04T22:26:12.656Z,7.60
2023-07-04T22:28:41.045Z,5.28
2023-07-04T22:31:12.940Z,6.68
2023-07-04T22:33:51.228Z,4.03
2023-07-04T22:36:19.239Z,11.68
2023-07-04T22:38:46.960Z,6.57
2023-07-04T22:41:14.657Z,3.90
2023-07-04T22:43:42.351Z,5.70
2023-07-04T22:46:10.776Z,8.85
2023-07-04T22:48:38.527Z,4.45
2023-07-04T22:51:06.183Z,7.72
2023-07-04T22:53:33.848Z,4.20
2023-07-04T22:56:07.049Z,6.57
2023-07-04T22:58:36.876Z,4.50
2023-07-04T23:01:14.241Z,4.07
2023-07-04T23:03:42.821Z,5.40
2023-07-04T23:06:12.314Z,4.93
2023-07-04T23:08:42.172Z,4.18
2023-07-04T23:11:10.051Z,4.18
2023-07-04T23:13:38.414Z,3.90
2023-07-04T23:16:10.410Z,3.80
2023-07-04T23:18:40.050Z,5.03
2023-07-04T23:21:07.884Z,20.15
2023-07-04T23:23:36.006Z,4.68
2023-07-04T23:26:18.639Z,3.47
2023-07-04T23:28:46.575Z,1.90
2023-07-04T23:31:15.208Z,3.08
2023-07-04T23:33:45.904Z,2.63
2023-07-04T23:36:16.150Z,2.97
2023-07-04T23:38:43.844Z,5.68
2023-07-04T23:41:12.190Z,4.57
2023-07-04T23:43:40.123Z,4.18
2023-07-04T23:46:07.860Z,4.57
2023-07-04T23:48:35.731Z,5.93
2023-07-04T23:51:03.437Z,6.55
2023-07-04T23:53:31.529Z,3.95
2023-07-04T23:55:59.196Z,3.20
2023-07-04T23:58:27.481Z,6.07
